Time;durP1;ratioP1;P1;durP2;ratioP2;P2;SDS_P1;SDS_P2;PMS_P1;PMS_P2;Temp;Humidity;BMP_temperature;BMP_pressure;BME280_temperature;BME280_humidity;BME280_pressure;Samples;Min_cycle;Max_cycle;Signal;HPM_P1;HPM_P2
2021/10/18 00:01:23;;;;;;;10.30;8.07;;;;;;;;;;5092120;28;20436;-81
2021/10/18 00:03:50;;;;;;;9.37;7.83;;;;;;;;;;5097374;28;20485;-81
2021/10/18 00:06:20;;;;;;;16.93;7.00;;;;;;;;;;5120412;27;20433;-81
2021/10/18 00:08:47;;;;;;;8.40;6.57;;;;;;;;;;5116328;27;20603;-82
2021/10/18 00:11:15;;;;;;;8.47;7.33;;;;;;;;;;5091836;28;20442;-81
2021/10/18 00:13:42;;;;;;;10.03;6.93;;;;;;;;;;5091313;28;20491;-81
2021/10/18 00:16:10;;;;;;;9.33;7.33;;;;;;;;;;5094468;28;20461;-79
2021/10/18 00:18:38;;;;;;;8.60;7.17;;;;;;;;;;5091531;28;20466;-81
2021/10/18 00:21:05;;;;;;;10.70;7.40;;;;;;;;;;5099508;27;20458;-80
2021/10/18 00:23:32;;;;;;;12.60;7.70;;;;;;;;;;5119804;27;20457;-82
2021/10/18 00:25:59;;;;;;;9.67;8.17;;;;;;;;;;5114302;27;20431;-82
2021/10/18 00:28:29;;;;;;;18.30;7.53;;;;;;;;;;5093261;28;20827;-79
2021/10/18 00:30:56;;;;;;;10.47;7.37;;;;;;;;;;5093649;28;20501;-82
2021/10/18 00:33:25;;;;;;;8.27;7.40;;;;;;;;;;5104609;28;21022;-82
2021/10/18 00:35:52;;;;;;;9.93;7.57;;;;;;;;;;5101791;28;20542;-80
2021/10/18 00:38:19;;;;;;;8.60;7.20;;;;;;;;;;5094163;28;20447;-81
2021/10/18 00:40:46;;;;;;;10.13;7.80;;;;;;;;;;5093403;28;20472;-81
2021/10/18 00:43:14;;;;;;;10.57;7.13;;;;;;;;;;5104550;27;20462;-80
2021/10/18 00:45:41;;;;;;;7.87;6.73;;;;;;;;;;5117879;27;20526;-80
2021/10/18 00:48:08;;;;;;;7.90;6.90;;;;;;;;;;5099050;27;20465;-82
2021/10/18 00:50:37;;;;;;;9.70;7.90;;;;;;;;;;5097021;28;20485;-80
2021/10/18 00:53:04;;;;;;;9.63;7.17;;;;;;;;;;5107586;28;20474;-82
2021/10/18 00:55:32;;;;;;;9.53;8.40;;;;;;;;;;5111797;28;20442;-82
2021/10/18 00:57:59;;;;;;;8.87;7.83;;;;;;;;;;5108566;28;21002;-80
2021/10/18 01:00:26;;;;;;;8.33;7.53;;;;;;;;;;5113571;28;20800;-81
2021/10/18 01:02:54;;;;;;;10.63;7.70;;;;;;;;;;5111877;28;20478;-82
2021/10/18 01:05:21;;;;;;;9.00;7.90;;;;;;;;;;5115986;27;20457;-79
2021/10/18 01:07:50;;;;;;;10.43;8.03;;;;;;;;;;5117946;27;20942;-82
2021/10/18 01:10:17;;;;;;;10.10;7.80;;;;;;;;;;5112883;27;20502;-82
2021/10/18 01:12:45;;;;;;;8.50;6.90;;;;;;;;;;5111816;28;20466;-79
2021/10/18 01:15:12;;;;;;;7.63;6.37;;;;;;;;;;5095905;28;20462;-82
2021/10/18 01:17:39;;;;;;;8.87;6.80;;;;;;;;;;5092604;28;20459;-80
2021/10/18 01:20:10;;;;;;;7.87;7.07;;;;;;;;;;5090029;28;20474;-79
2021/10/18 01:22:39;;;;;;;9.33;7.70;;;;;;;;;;5102727;27;20799;-80
2021/10/18 01:25:09;;;;;;;8.97;7.03;;;;;;;;;;5118259;27;20492;-80
2021/10/18 01:27:36;;;;;;;9.50;7.40;;;;;;;;;;5098537;28;20771;-82
2021/10/18 01:30:04;;;;;;;9.43;7.43;;;;;;;;;;5110080;28;20556;-80
2021/10/18 01:32:31;;;;;;;10.88;7.63;;;;;;;;;;5111198;28;20442;-81
2021/10/18 01:34:58;;;;;;;9.20;8.00;;;;;;;;;;5094071;28;20199;-82
2021/10/18 01:37:25;;;;;;;8.33;7.43;;;;;;;;;;5094971;27;20193;-81
2021/10/18 01:39:54;;;;;;;8.60;7.70;;;;;;;;;;5110504;27;20451;-81
2021/10/18 01:42:21;;;;;;;13.33;7.33;;;;;;;;;;5107396;27;20458;-81
2021/10/18 01:44:49;;;;;;;9.63;8.10;;;;;;;;;;5104944;28;20971;-81
2021/10/18 01:47:17;;;;;;;7.90;7.10;;;;;;;;;;5108947;28;20481;-81
2021/10/18 01:49:44;;;;;;;9.95;7.75;;;;;;;;;;5113184;28;20481;-82
2021/10/18 01:52:11;;;;;;;10.70;8.10;;;;;;;;;;5114174;28;20205;-80
2021/10/18 01:54:38;;;;;;;8.87;6.80;;;;;;;;;;5121614;27;20227;-81
2021/10/18 01:57:07;;;;;;;8.20;7.32;;;;;;;;;;5116605;27;20473;-81
2021/10/18 01:59:34;;;;;;;9.48;8.18;;;;;;;;;;5112801;28;20200;-80
2021/10/18 02:02:02;;;;;;;9.67;7.67;;;;;;;;;;5103688;28;20311;-81
2021/10/18 02:04:29;;;;;;;8.50;6.93;;;;;;;;;;5112778;28;20683;-80
2021/10/18 02:06:57;;;;;;;8.97;7.57;;;;;;;;;;5108016;28;20452;-80
2021/10/18 02:09:24;;;;;;;10.07;7.63;;;;;;;;;;5100347;28;20487;-81
2021/10/18 02:11:51;;;;;;;11.60;8.47;;;;;;;;;;5117424;28;20438;-80
2021/10/18 02:14:20;;;;;;;10.80;7.90;;;;;;;;;;5133390;27;20461;-79
2021/10/18 02:16:47;;;;;;;10.33;7.57;;;;;;;;;;5100254;27;20462;-81
2021/10/18 02:19:14;;;;;;;12.00;7.80;;;;;;;;;;5090259;28;20439;-81
2021/10/18 02:21:42;;;;;;;9.30;7.53;;;;;;;;;;5090052;28;20464;-80
2021/10/18 02:24:12;;;;;;;8.87;7.93;;;;;;;;;;5112278;28;20480;-80
2021/10/18 02:26:39;;;;;;;8.30;7.13;;;;;;;;;;5119546;27;20470;-80
2021/10/18 02:29:06;;;;;;;8.53;7.47;;;;;;;;;;5120607;27;20207;-81
2021/10/18 02:31:35;;;;;;;8.70;7.70;;;;;;;;;;5131772;27;20452;-79
2021/10/18 02:34:20;;;;;;;9.02;7.25;;;;;;;;;;5103012;27;20219;-81
2021/10/18 02:36:48;;;;;;;10.23;7.50;;;;;;;;;;5097947;28;20205;-78
2021/10/18 02:39:15;;;;;;;9.98;7.88;;;;;;;;;;5096040;28;20205;-80
2021/10/18 02:41:42;;;;;;;7.03;6.43;;;;;;;;;;5111086;28;20387;-78
2021/10/18 02:44:09;;;;;;;11.90;8.60;;;;;;;;;;5095611;28;20578;-79
2021/10/18 02:46:38;;;;;;;12.27;7.63;;;;;;;;;;5101067;28;20461;-80
2021/10/18 02:49:05;;;;;;;13.50;8.65;;;;;;;;;;5119889;27;20200;-79
2021/10/18 02:51:32;;;;;;;8.80;7.90;;;;;;;;;;5108036;27;20219;-82
2021/10/18 02:54:02;;;;;;;11.43;7.53;;;;;;;;;;5094223;28;20212;-80
2021/10/18 02:56:29;;;;;;;11.30;8.32;;;;;;;;;;5093978;28;20288;-80
2021/10/18 02:58:56;;;;;;;9.30;7.40;;;;;;;;;;5093657;28;20554;-81
2021/10/18 03:01:24;;;;;;;9.07;8.15;;;;;;;;;;5106372;28;20461;-81
2021/10/18 03:03:52;;;;;;;9.90;7.53;;;;;;;;;;5095570;28;20231;-81
2021/10/18 03:06:19;;;;;;;9.43;7.30;;;;;;;;;;5095155;28;20190;-80
2021/10/18 03:08:47;;;;;;;9.65;7.53;;;;;;;;;;5095793;28;20439;-81
2021/10/18 03:11:14;;;;;;;9.57;6.87;;;;;;;;;;5117417;27;20224;-81
2021/10/18 03:13:41;;;;;;;10.90;7.93;;;;;;;;;;5124484;27;20488;-79
2021/10/18 03:16:09;;;;;;;9.07;8.18;;;;;;;;;;5132550;27;20192;-80
2021/10/18 03:18:36;;;;;;;9.13;7.90;;;;;;;;;;5101463;28;20656;-81
2021/10/18 03:21:05;;;;;;;10.20;8.00;;;;;;;;;;5112820;28;20700;-80
2021/10/18 03:23:32;;;;;;;11.03;8.00;;;;;;;;;;5107767;28;20504;-80
2021/10/18 03:25:59;;;;;;;12.23;9.10;;;;;;;;;;5105681;27;20801;-81
2021/10/18 03:28:26;;;;;;;10.38;7.95;;;;;;;;;;5118377;27;20449;-80
2021/10/18 03:30:54;;;;;;;9.50;8.20;;;;;;;;;;5102512;27;20227;-81
2021/10/18 03:33:21;;;;;;;10.15;7.97;;;;;;;;;;5111917;28;20220;-81
2021/10/18 03:35:49;;;;;;;12.68;7.85;;;;;;;;;;5110582;28;20208;-80
2021/10/18 03:38:18;;;;;;;12.95;8.52;;;;;;;;;;5111069;28;20196;-81
2021/10/18 03:40:45;;;;;;;10.35;8.88;;;;;;;;;;5102706;28;20201;-79
2021/10/18 03:43:12;;;;;;;10.68;8.45;;;;;;;;;;5108022;28;20219;-81
2021/10/18 03:45:40;;;;;;;12.50;8.60;;;;;;;;;;5099496;28;20194;-80
2021/10/18 03:48:07;;;;;;;10.95;8.75;;;;;;;;;;5105706;27;20445;-80
2021/10/18 03:50:34;;;;;;;10.40;9.27;;;;;;;;;;5118766;27;20205;-79
2021/10/18 03:53:01;;;;;;;9.88;8.40;;;;;;;;;;5099847;27;20555;-81
2021/10/18 03:55:30;;;;;;;11.73;8.52;;;;;;;;;;5099555;28;20542;-80
2021/10/18 03:57:57;;;;;;;9.77;7.95;;;;;;;;;;5107268;28;20335;-80
2021/10/18 04:00:24;;;;;;;10.63;8.75;;;;;;;;;;5097496;28;20500;-80
2021/10/18 04:02:52;;;;;;;10.70;8.75;;;;;;;;;;5092700;28;20221;-80
2021/10/18 04:05:19;;;;;;;13.02;8.82;;;;;;;;;;5092683;28;20196;-81
2021/10/18 04:07:48;;;;;;;15.65;8.27;;;;;;;;;;5105809;28;20189;-80
2021/10/18 04:10:17;;;;;;;12.75;8.82;;;;;;;;;;5117042;27;20275;-80
2021/10/18 04:12:46;;;;;;;10.20;8.60;;;;;;;;;;5117752;27;20242;-80
2021/10/18 04:15:13;;;;;;;11.77;8.05;;;;;;;;;;5129157;27;20278;-80
2021/10/18 04:17:41;;;;;;;10.90;8.38;;;;;;;;;;5124911;27;20193;-81
2021/10/18 04:20:10;;;;;;;11.38;9.77;;;;;;;;;;5112568;28;20193;-80
2021/10/18 04:22:37;;;;;;;9.52;8.52;;;;;;;;;;5110083;28;20207;-79
2021/10/18 04:25:04;;;;;;;10.00;9.05;;;;;;;;;;5103280;27;20580;-81
2021/10/18 04:27:32;;;;;;;10.10;7.85;;;;;;;;;;5120112;27;20200;-79
2021/10/18 04:30:00;;;;;;;9.68;8.68;;;;;;;;;;5110019;27;20212;-80
2021/10/18 04:32:27;;;;;;;11.73;9.15;;;;;;;;;;5100602;28;20200;-80
2021/10/18 04:34:55;;;;;;;10.63;8.65;;;;;;;;;;5111890;28;20205;-80
2021/10/18 04:37:22;;;;;;;9.45;8.02;;;;;;;;;;5104583;28;20185;-79
2021/10/18 04:39:49;;;;;;;11.85;9.35;;;;;;;;;;5100772;28;20198;-80
2021/10/18 04:42:16;;;;;;;12.10;8.50;;;;;;;;;;5110499;27;20196;-79
2021/10/18 04:44:43;;;;;;;11.63;8.65;;;;;;;;;;5110717;27;20227;-78
2021/10/18 04:47:12;;;;;;;10.73;8.65;;;;;;;;;;5111680;27;20193;-79
2021/10/18 04:49:39;;;;;;;14.93;9.13;;;;;;;;;;5097229;28;20197;-81
2021/10/18 04:52:06;;;;;;;12.20;9.75;;;;;;;;;;5102860;28;20286;-79
2021/10/18 04:54:34;;;;;;;16.20;9.75;;;;;;;;;;5107200;28;20244;-78
2021/10/18 04:57:01;;;;;;;12.00;9.20;;;;;;;;;;5096230;28;20294;-80
2021/10/18 04:59:28;;;;;;;15.60;10.48;;;;;;;;;;5107964;27;20199;-80
2021/10/18 05:01:55;;;;;;;12.93;9.77;;;;;;;;;;5114675;27;20214;-79
2021/10/18 05:04:24;;;;;;;11.30;9.30;;;;;;;;;;5093554;28;20217;-80
2021/10/18 05:06:51;;;;;;;14.75;10.07;;;;;;;;;;5111483;28;20615;-81
2021/10/18 05:09:19;;;;;;;11.95;8.85;;;;;;;;;;5111984;28;20196;-79
2021/10/18 05:11:46;;;;;;;11.98;9.60;;;;;;;;;;5091986;28;20613;-79
2021/10/18 05:14:13;;;;;;;10.35;9.27;;;;;;;;;;5095222;28;20205;-80
2021/10/18 05:16:40;;;;;;;11.80;10.10;;;;;;;;;;5093130;28;20204;-80
2021/10/18 05:19:07;;;;;;;10.77;8.82;;;;;;;;;;5092877;28;20270;-79
2021/10/18 05:21:36;;;;;;;10.57;8.95;;;;;;;;;;5108747;27;20757;-80
2021/10/18 05:24:03;;;;;;;10.45;9.35;;;;;;;;;;5121592;27;20220;-80
2021/10/18 05:26:30;;;;;;;14.02;10.13;;;;;;;;;;5124271;27;20200;-80
2021/10/18 05:29:00;;;;;;;14.88;9.77;;;;;;;;;;5101310;28;20689;-81
2021/10/18 05:31:28;;;;;;;12.13;9.35;;;;;;;;;;5114518;28;20255;-78
2021/10/18 05:34:01;;;;;;;11.77;8.77;;;;;;;;;;5112746;28;20216;-78
2021/10/18 05:36:28;;;;;;;13.63;9.95;;;;;;;;;;5120274;27;20286;-80
2021/10/18 05:38:57;;;;;;;12.70;10.88;;;;;;;;;;5122508;27;20199;-80
2021/10/18 05:41:24;;;;;;;13.90;9.27;;;;;;;;;;5090921;28;20232;-79
2021/10/18 05:43:52;;;;;;;12.48;9.32;;;;;;;;;;5090663;28;20591;-79
2021/10/18 05:46:19;;;;;;;12.38;9.73;;;;;;;;;;5102183;28;20196;-81
2021/10/18 05:48:46;;;;;;;12.77;9.73;;;;;;;;;;5112755;28;20665;-79
2021/10/18 05:51:13;;;;;;;12.20;9.70;;;;;;;;;;5092218;28;20236;-78
2021/10/18 05:53:40;;;;;;;11.00;9.38;;;;;;;;;;5095805;28;20223;-80
2021/10/18 05:56:09;;;;;;;11.35;9.73;;;;;;;;;;5112739;28;20196;-80
2021/10/18 05:58:36;;;;;;;11.20;9.57;;;;;;;;;;5112862;28;20200;-80
2021/10/18 06:01:04;;;;;;;12.80;9.68;;;;;;;;;;5123535;28;20925;-81
2021/10/18 06:03:31;;;;;;;13.90;10.00;;;;;;;;;;5104759;27;20212;-80
2021/10/18 06:06:00;;;;;;;13.77;10.30;;;;;;;;;;5108964;28;20507;-79
2021/10/18 06:08:28;;;;;;;14.23;9.95;;;;;;;;;;5108326;28;20608;-80
2021/10/18 06:10:55;;;;;;;13.82;10.27;;;;;;;;;;5108266;28;20224;-79
2021/10/18 06:13:24;;;;;;;12.90;10.35;;;;;;;;;;5119000;27;20212;-78
2021/10/18 06:15:52;;;;;;;12.98;10.88;;;;;;;;;;5124825;27;20202;-82
2021/10/18 06:18:20;;;;;;;14.98;10.13;;;;;;;;;;5123486;27;20281;-81
2021/10/18 06:20:48;;;;;;;15.30;10.05;;;;;;;;;;5112266;28;20587;-81
2021/10/18 06:23:16;;;;;;;15.07;9.55;;;;;;;;;;5114592;28;20234;-81
2021/10/18 06:25:49;;;;;;;15.80;10.30;;;;;;;;;;5105689;28;20181;-82
2021/10/18 06:28:17;;;;;;;12.80;10.25;;;;;;;;;;5096959;28;20284;-80
2021/10/18 06:30:50;;;;;;;14.27;9.60;;;;;;;;;;5099110;28;20754;-80
2021/10/18 06:33:20;;;;;;;17.33;10.52;;;;;;;;;;5117061;28;20220;-81
2021/10/18 06:35:48;;;;;;;15.40;10.98;;;;;;;;;;5120728;27;20592;-79
2021/10/18 06:38:16;;;;;;;15.43;11.00;;;;;;;;;;5125262;27;20569;-80
2021/10/18 06:40:44;;;;;;;18.58;9.98;;;;;;;;;;5134683;27;20214;-80
2021/10/18 06:43:11;;;;;;;23.63;10.23;;;;;;;;;;5099638;27;20616;-81
2021/10/18 06:45:39;;;;;;;13.38;9.98;;;;;;;;;;5102408;28;20193;-81
2021/10/18 06:48:08;;;;;;;13.93;9.90;;;;;;;;;;5112018;28;20280;-81
2021/10/18 06:50:35;;;;;;;12.43;9.55;;;;;;;;;;5105245;27;20220;-80
2021/10/18 06:53:02;;;;;;;13.35;10.27;;;;;;;;;;5113185;27;20364;-82
2021/10/18 06:55:30;;;;;;;14.75;9.13;;;;;;;;;;5099335;27;20610;-80
2021/10/18 06:57:57;;;;;;;11.35;9.10;;;;;;;;;;5093502;28;20235;-82
2021/10/18 07:00:24;;;;;;;14.48;9.88;;;;;;;;;;5095451;28;20196;-80
2021/10/18 07:02:51;;;;;;;12.67;9.30;;;;;;;;;;5113807;28;20578;-80
2021/10/18 07:05:21;;;;;;;13.50;9.83;;;;;;;;;;5103728;28;20459;-80
2021/10/18 07:07:49;;;;;;;14.07;9.77;;;;;;;;;;5115952;28;20442;-81
2021/10/18 07:10:16;;;;;;;16.50;10.20;;;;;;;;;;5114686;28;20446;-81
2021/10/18 07:12:43;;;;;;;13.07;9.53;;;;;;;;;;5104759;27;20683;-80
2021/10/18 07:15:11;;;;;;;14.67;10.07;;;;;;;;;;5120405;27;20455;-80
2021/10/18 07:17:38;;;;;;;12.33;10.30;;;;;;;;;;5099873;28;20477;-81
2021/10/18 07:20:06;;;;;;;12.10;9.13;;;;;;;;;;5114655;28;20442;-80
2021/10/18 07:22:41;;;;;;;15.80;9.93;;;;;;;;;;5112778;28;20442;-81
2021/10/18 07:25:09;;;;;;;12.90;9.50;;;;;;;;;;5094560;28;20486;-80
2021/10/18 07:27:36;;;;;;;19.03;12.60;;;;;;;;;;5093951;28;20491;-80
2021/10/18 07:30:04;;;;;;;13.17;10.37;;;;;;;;;;5094142;28;20458;-81
2021/10/18 07:32:32;;;;;;;15.03;10.80;;;;;;;;;;5114408;28;20832;-81
2021/10/18 07:35:00;;;;;;;16.50;10.93;;;;;;;;;;5118378;27;20487;-81
2021/10/18 07:37:28;;;;;;;16.97;10.13;;;;;;;;;;5118234;27;20552;-82
2021/10/18 07:39:58;;;;;;;13.60;10.67;;;;;;;;;;5114184;27;20957;-80
2021/10/18 07:42:25;;;;;;;12.30;10.33;;;;;;;;;;5105347;28;20463;-81
2021/10/18 07:44:53;;;;;;;12.00;10.30;;;;;;;;;;5112917;28;20454;-80
2021/10/18 07:47:21;;;;;;;12.90;10.77;;;;;;;;;;5112292;28;20743;-81
2021/10/18 07:49:48;;;;;;;13.33;10.20;;;;;;;;;;5102978;27;20872;-83
2021/10/18 07:52:16;;;;;;;14.50;10.53;;;;;;;;;;5120592;27;20509;-80
2021/10/18 07:54:44;;;;;;;14.83;11.53;;;;;;;;;;5102237;27;20877;-80
2021/10/18 07:57:14;;;;;;;13.77;10.73;;;;;;;;;;5091833;28;20999;-81
2021/10/18 07:59:42;;;;;;;15.10;11.10;;;;;;;;;;5092307;28;20493;-78
2021/10/18 08:02:09;;;;;;;15.23;10.77;;;;;;;;;;5091643;28;20953;-79
2021/10/18 08:04:39;;;;;;;13.00;10.27;;;;;;;;;;5099772;28;20474;-81
2021/10/18 08:07:06;;;;;;;14.67;10.63;;;;;;;;;;5117016;27;20490;-84
2021/10/18 08:09:33;;;;;;;13.97;10.80;;;;;;;;;;5122816;27;20434;-81
2021/10/18 08:12:00;;;;;;;14.20;10.80;;;;;;;;;;5132340;27;20517;-81
2021/10/18 08:14:29;;;;;;;16.03;11.33;;;;;;;;;;5099186;27;20838;-84
2021/10/18 08:19:37;;;;;;;15.20;10.70;;;;;;;;;;5070605;28;20466;-83
2021/10/18 08:22:04;;;;;;;16.53;11.13;;;;;;;;;;5083479;28;20481;-80
2021/10/18 08:24:32;;;;;;;12.20;10.40;;;;;;;;;;5078822;28;20975;-78
2021/10/18 08:26:59;;;;;;;12.93;11.50;;;;;;;;;;5068330;28;20463;-80
2021/10/18 08:29:26;;;;;;;16.30;11.63;;;;;;;;;;5067568;28;21003;-78
2021/10/18 08:31:55;;;;;;;12.77;11.47;;;;;;;;;;5072179;28;20483;-81
2021/10/18 08:34:22;;;;;;;13.93;10.90;;;;;;;;;;5084732;28;20482;-80
2021/10/18 08:36:49;;;;;;;15.70;11.37;;;;;;;;;;5089929;28;20518;-79
2021/10/18 08:42:01;;;;;;;14.37;11.40;;;;;;;;;;5082443;28;20466;-79
2021/10/18 08:44:29;;;;;;;16.00;11.67;;;;;;;;;;5087891;28;20501;-80
2021/10/18 08:47:01;;;;;;;13.10;10.90;;;;;;;;;;5079898;28;20857;-80
2021/10/18 08:49:29;;;;;;;15.47;11.00;;;;;;;;;;5069905;28;20462;-80
2021/10/18 08:51:56;;;;;;;13.40;11.00;;;;;;;;;;5095872;27;20490;-80
2021/10/18 08:54:23;;;;;;;17.00;12.10;;;;;;;;;;5097745;27;20477;-80
2021/10/18 08:56:51;;;;;;;18.13;13.90;;;;;;;;;;5113775;27;20438;-79
2021/10/18 08:59:19;;;;;;;15.13;11.43;;;;;;;;;;5109534;28;20813;-79
2021/10/18 09:01:47;;;;;;;16.20;12.10;;;;;;;;;;5103735;28;20474;-80
2021/10/18 09:04:25;;;;;;;15.90;12.00;;;;;;;;;;5107936;28;20460;-79
2021/10/18 09:06:53;;;;;;;18.50;12.63;;;;;;;;;;5096206;28;20454;-80
2021/10/18 09:09:24;;;;;;;14.30;11.47;;;;;;;;;;5117820;27;20987;-80
2021/10/18 09:11:51;;;;;;;15.27;11.40;;;;;;;;;;5121556;27;20504;-80
2021/10/18 09:14:18;;;;;;;15.30;12.13;;;;;;;;;;5109109;27;20645;-79
2021/10/18 09:16:47;;;;;;;17.20;12.60;;;;;;;;;;5092895;28;20463;-79
2021/10/18 09:19:15;;;;;;;13.17;11.43;;;;;;;;;;5093352;28;20466;-81
2021/10/18 09:21:44;;;;;;;16.67;12.10;;;;;;;;;;5092482;28;20459;-78
2021/10/18 09:24:14;;;;;;;15.00;12.20;;;;;;;;;;5117215;27;20470;-80
2021/10/18 09:26:42;;;;;;;18.23;12.43;;;;;;;;;;5102115;27;20465;-79
2021/10/18 09:29:10;;;;;;;15.30;12.87;;;;;;;;;;5090295;28;20456;-79
2021/10/18 09:31:38;;;;;;;17.43;12.33;;;;;;;;;;5107009;28;20474;-79
2021/10/18 09:34:07;;;;;;;16.27;12.57;;;;;;;;;;5107588;28;20517;-79
2021/10/18 09:36:35;;;;;;;17.00;12.40;;;;;;;;;;5092552;28;20466;-80
2021/10/18 09:39:17;;;;;;;20.70;13.90;;;;;;;;;;5107589;27;20489;-78
2021/10/18 09:41:57;;;;;;;17.40;13.00;;;;;;;;;;5109412;27;21479;-79
2021/10/18 09:44:40;;;;;;;17.90;13.10;;;;;;;;;;5130767;27;20445;-80
2021/10/18 10:52:59;;;;;;;16.60;11.70;;;;;;;;;;5092983;28;20487;-78
2021/10/18 10:55:27;;;;;;;16.43;12.33;;;;;;;;;;5104287;28;20541;-79
2021/10/18 10:57:56;;;;;;;14.43;11.03;;;;;;;;;;5111096;28;20442;-78
2021/10/18 11:00:31;;;;;;;19.60;14.60;;;;;;;;;;5101175;28;20861;-78
2021/10/18 11:03:13;;;;;;;18.70;13.53;;;;;;;;;;5093226;28;20470;-78
2021/10/18 11:05:40;;;;;;;14.60;11.90;;;;;;;;;;5095596;28;20447;-79
2021/10/18 11:08:29;;;;;;;17.53;14.00;;;;;;;;;;5120080;27;20532;-79
2021/10/18 11:10:56;;;;;;;15.67;12.90;;;;;;;;;;5108799;28;20467;-79
2021/10/18 11:13:23;;;;;;;19.30;13.50;;;;;;;;;;5113263;28;20489;-77
2021/10/18 11:15:51;;;;;;;17.50;13.37;;;;;;;;;;5106238;28;20459;-78
2021/10/18 11:18:25;;;;;;;22.47;13.27;;;;;;;;;;5110882;28;20446;-77
2021/10/18 11:20:52;;;;;;;16.40;12.63;;;;;;;;;;5108903;28;20463;-78
2021/10/18 11:23:21;;;;;;;17.47;12.13;;;;;;;;;;5093558;28;20486;-79
2021/10/18 11:25:48;;;;;;;20.03;12.50;;;;;;;;;;5106587;28;20991;-78
2021/10/18 11:28:16;;;;;;;20.90;13.60;;;;;;;;;;5113205;28;20449;-80
2021/10/18 11:30:44;;;;;;;21.20;14.67;;;;;;;;;;5115185;27;20465;-79
2021/10/18 11:33:13;;;;;;;17.60;13.23;;;;;;;;;;5120525;27;20936;-80
2021/10/18 11:35:41;;;;;;;16.03;13.03;;;;;;;;;;5092271;28;20440;-79
2021/10/18 11:38:09;;;;;;;20.50;13.00;;;;;;;;;;5094072;28;20780;-78
2021/10/18 11:40:39;;;;;;;17.37;12.63;;;;;;;;;;5094246;28;20454;-79
2021/10/18 11:43:07;;;;;;;17.87;13.80;;;;;;;;;;5101566;28;21056;-78
2021/10/18 11:45:35;;;;;;;18.63;12.80;;;;;;;;;;5104567;28;20465;-79
2021/10/18 11:48:05;;;;;;;17.77;12.53;;;;;;;;;;5108874;28;20458;-79
2021/10/18 11:50:36;;;;;;;17.53;12.60;;;;;;;;;;5090720;28;20450;-77
2021/10/18 11:53:10;;;;;;;17.37;13.57;;;;;;;;;;5104982;27;20515;-79
2021/10/18 11:55:40;;;;;;;16.47;13.43;;;;;;;;;;5114162;27;20462;-78
2021/10/18 11:58:08;;;;;;;17.63;12.63;;;;;;;;;;5094753;28;20562;-76
2021/10/18 12:00:41;;;;;;;16.67;13.43;;;;;;;;;;5086956;28;20450;-76
2021/10/18 12:03:09;;;;;;;17.00;11.67;;;;;;;;;;5087254;28;20480;-79
2021/10/18 12:05:37;;;;;;;17.83;13.23;;;;;;;;;;5087641;28;21341;-77
2021/10/18 12:08:05;;;;;;;16.53;12.60;;;;;;;;;;5106491;27;20454;-77
2021/10/18 12:10:33;;;;;;;14.90;12.60;;;;;;;;;;5116787;27;20500;-78
2021/10/18 12:13:15;;;;;;;18.70;11.97;;;;;;;;;;5100893;28;21000;-78
2021/10/18 12:15:48;;;;;;;16.73;13.17;;;;;;;;;;5107855;28;20937;-77
2021/10/18 12:18:17;;;;;;;20.03;14.00;;;;;;;;;;5109285;28;20460;-77
2021/10/18 12:20:44;;;;;;;16.80;12.37;;;;;;;;;;5104353;28;20450;-77
2021/10/18 12:23:17;;;;;;;15.77;12.43;;;;;;;;;;5107738;28;20479;-77
2021/10/18 12:25:52;;;;;;;15.10;11.10;;;;;;;;;;5094090;28;20439;-79
2021/10/18 12:28:34;;;;;;;15.60;11.50;;;;;;;;;;5093250;28;20456;-77
2021/10/18 12:33:44;;;;;;;14.80;11.73;;;;;;;;;;5086668;28;20574;-78
2021/10/18 12:36:11;;;;;;;13.73;11.30;;;;;;;;;;5086470;28;20595;-79
2021/10/18 12:38:40;;;;;;;16.80;13.37;;;;;;;;;;5088523;28;21078;-78
2021/10/18 12:41:09;;;;;;;18.30;11.90;;;;;;;;;;5088162;28;20437;-78
2021/10/18 12:43:36;;;;;;;16.20;11.33;;;;;;;;;;5087619;28;21097;-78
2021/10/18 12:46:18;;;;;;;15.07;12.23;;;;;;;;;;5085277;28;20450;-77
2021/10/18 12:49:00;;;;;;;14.90;11.30;;;;;;;;;;5071927;28;20439;-77
2021/10/18 12:51:37;;;;;;;15.80;11.00;;;;;;;;;;5074187;28;20453;-78
2021/10/18 12:54:19;;;;;;;14.60;11.83;;;;;;;;;;5090468;28;20609;-77
2021/10/18 12:56:57;;;;;;;17.57;12.37;;;;;;;;;;5090925;28;20484;-77
2021/10/18 12:59:24;;;;;;;15.43;11.93;;;;;;;;;;5097071;28;20455;-77
2021/10/18 13:02:06;;;;;;;15.03;11.43;;;;;;;;;;5104536;28;20442;-78
2021/10/18 13:04:33;;;;;;;14.40;11.63;;;;;;;;;;5108192;28;20828;-77
2021/10/18 13:07:01;;;;;;;18.40;10.93;;;;;;;;;;5115079;27;20431;-77
2021/10/18 13:09:29;;;;;;;14.57;11.77;;;;;;;;;;5117009;27;20449;-78
2021/10/18 13:11:56;;;;;;;16.80;12.20;;;;;;;;;;5104744;27;20456;-77
2021/10/18 13:14:23;;;;;;;16.03;11.30;;;;;;;;;;5106985;28;20495;-78
2021/10/18 13:16:50;;;;;;;14.60;10.93;;;;;;;;;;5103817;28;20798;-78
2021/10/18 13:19:17;;;;;;;12.90;10.20;;;;;;;;;;5108483;28;20817;-78
2021/10/18 13:21:45;;;;;;;14.70;12.33;;;;;;;;;;5097075;28;20457;-77
2021/10/18 13:24:13;;;;;;;13.27;11.43;;;;;;;;;;5088784;28;20562;-77
2021/10/18 13:26:40;;;;;;;13.70;11.00;;;;;;;;;;5089401;28;21003;-77
2021/10/18 13:29:07;;;;;;;16.10;11.80;;;;;;;;;;5091392;27;20454;-78
2021/10/18 13:31:35;;;;;;;14.27;11.63;;;;;;;;;;5115509;27;20443;-77
2021/10/18 13:34:03;;;;;;;16.03;12.00;;;;;;;;;;5110257;27;20489;-77
2021/10/18 13:36:30;;;;;;;17.20;11.90;;;;;;;;;;5102823;28;20450;-77
2021/10/18 13:39:01;;;;;;;15.17;11.50;;;;;;;;;;5088295;28;20988;-77
2021/10/18 13:41:29;;;;;;;16.70;11.90;;;;;;;;;;5096669;28;20462;-77
2021/10/18 13:43:57;;;;;;;14.17;11.10;;;;;;;;;;5086420;28;20494;-78
2021/10/18 13:46:24;;;;;;;18.23;12.13;;;;;;;;;;5105366;27;20431;-77
2021/10/18 13:48:51;;;;;;;16.30;10.23;;;;;;;;;;5107964;27;20834;-78
2021/10/18 13:51:19;;;;;;;17.90;12.00;;;;;;;;;;5107393;28;20450;-77
2021/10/18 13:53:46;;;;;;;15.23;11.27;;;;;;;;;;5097899;28;20501;-78
2021/10/18 13:56:13;;;;;;;16.27;11.97;;;;;;;;;;5085757;28;20451;-77
2021/10/18 13:58:42;;;;;;;14.50;11.97;;;;;;;;;;5103333;28;20547;-78
2021/10/18 14:01:09;;;;;;;17.70;11.73;;;;;;;;;;5094898;27;20466;-77
2021/10/18 14:03:36;;;;;;;16.67;11.43;;;;;;;;;;5112433;28;20466;-78
2021/10/18 14:06:04;;;;;;;14.40;11.47;;;;;;;;;;5099169;28;20843;-78
2021/10/18 14:08:31;;;;;;;13.63;11.07;;;;;;;;;;5102716;28;20446;-79
2021/10/18 14:10:58;;;;;;;15.93;10.97;;;;;;;;;;5105135;28;20465;-78
2021/10/18 14:13:25;;;;;;;13.47;11.43;;;;;;;;;;5102468;28;20484;-78
2021/10/18 14:15:54;;;;;;;15.70;10.93;;;;;;;;;;5094082;28;20462;-78
2021/10/18 14:18:21;;;;;;;17.20;11.80;;;;;;;;;;5106566;28;20461;-78
2021/10/18 14:20:48;;;;;;;16.07;11.03;;;;;;;;;;5101714;28;20449;-77
2021/10/18 14:23:15;;;;;;;15.93;11.07;;;;;;;;;;5108602;28;20472;-78
2021/10/18 14:25:43;;;;;;;13.23;10.83;;;;;;;;;;5105255;28;20443;-77
2021/10/18 14:28:10;;;;;;;13.27;10.87;;;;;;;;;;5109265;28;20446;-78
2021/10/18 14:30:37;;;;;;;14.23;11.63;;;;;;;;;;5109105;28;20454;-78
2021/10/18 14:33:06;;;;;;;16.30;12.67;;;;;;;;;;5100116;28;20482;-78
2021/10/18 14:35:34;;;;;;;14.07;11.00;;;;;;;;;;5114292;27;20837;-77
2021/10/18 14:38:02;;;;;;;16.77;11.93;;;;;;;;;;5117819;27;20911;-78
2021/10/18 14:40:29;;;;;;;15.90;11.93;;;;;;;;;;5108640;28;20438;-78
2021/10/18 14:42:56;;;;;;;15.80;11.47;;;;;;;;;;5096505;28;20483;-78
2021/10/18 14:45:23;;;;;;;15.83;12.40;;;;;;;;;;5110853;28;20477;-76
2021/10/18 14:47:51;;;;;;;14.80;11.90;;;;;;;;;;5110814;28;20518;-78
2021/10/18 14:50:19;;;;;;;17.37;11.37;;;;;;;;;;5113185;27;20988;-78
2021/10/18 14:52:46;;;;;;;17.00;12.13;;;;;;;;;;5116832;27;20473;-79
2021/10/18 14:55:15;;;;;;;18.00;11.67;;;;;;;;;;5102748;27;20434;-78
2021/10/18 14:57:42;;;;;;;15.43;12.13;;;;;;;;;;5091087;28;20458;-79
2021/10/18 15:00:10;;;;;;;17.00;12.23;;;;;;;;;;5091458;27;20462;-78
2021/10/18 15:02:41;;;;;;;18.27;10.70;;;;;;;;;;5105059;28;20454;-78
2021/10/18 15:05:09;;;;;;;14.53;11.93;;;;;;;;;;5106722;27;20489;-78
2021/10/18 15:07:38;;;;;;;19.27;13.10;;;;;;;;;;5120678;27;20822;-78
2021/10/18 15:10:06;;;;;;;17.33;12.37;;;;;;;;;;5104971;27;20446;-78
2021/10/18 15:12:33;;;;;;;16.33;12.43;;;;;;;;;;5094550;28;20459;-78
2021/10/18 15:15:00;;;;;;;17.17;12.80;;;;;;;;;;5093494;28;20488;-77
2021/10/18 15:17:27;;;;;;;18.83;12.80;;;;;;;;;;5102719;28;20449;-77
2021/10/18 15:19:54;;;;;;;15.97;12.27;;;;;;;;;;5094356;28;20550;-78
2021/10/18 15:22:22;;;;;;;17.00;11.93;;;;;;;;;;5097281;28;20443;-78
2021/10/18 15:24:52;;;;;;;17.70;12.50;;;;;;;;;;5102855;27;20477;-79
2021/10/18 15:27:19;;;;;;;20.37;13.53;;;;;;;;;;5122611;27;20448;-79
2021/10/18 15:29:49;;;;;;;17.10;12.20;;;;;;;;;;5119217;27;20442;-78
2021/10/18 15:32:16;;;;;;;18.57;13.13;;;;;;;;;;5091474;28;20456;-79
2021/10/18 15:34:43;;;;;;;20.57;14.00;;;;;;;;;;5103345;28;21053;-79
2021/10/18 15:37:11;;;;;;;16.20;13.50;;;;;;;;;;5106920;28;20450;-79
2021/10/18 15:39:40;;;;;;;21.67;13.77;;;;;;;;;;5092755;28;20459;-80
2021/10/18 15:42:09;;;;;;;22.60;14.30;;;;;;;;;;5111960;27;20902;-79
2021/10/18 15:44:36;;;;;;;20.67;14.13;;;;;;;;;;5110764;27;20441;-79
2021/10/18 15:47:04;;;;;;;15.70;13.47;;;;;;;;;;5104707;28;20468;-78